Date,TemperatureHighF,TemperatureAvgF,TemperatureLowF,DewpointHighF,DewpointAvgF,DewpointLowF,HumidityHigh,HumidityAvg,HumidityLow,PressureMaxIn,PressureMinIn,WindSpeedMaxMPH,WindSpeedAvgMPH,GustSpeedMaxMPH,PrecipitationSumIn
2013-10-1,0.0,0.0,0.0,0.0,0.0,0.0,0,0,100,29.97,29.88,10,4,10,0.00
2013-10-2,0.0,0.0,0.0,0.0,0.0,0.0,0,0,100,30.00,29.94,8,1,8,0.00
2013-10-3,0.0,0.0,0.0,0.0,0.0,0.0,0,0,100,30.00,29.97,9,2,10,0.00
2013-10-4,0.0,0.0,0.0,0.0,0.0,0.0,0,0,100,30.06,29.97,9,2,9,0.00
2013-10-5,0.0,0.0,0.0,0.0,0.0,0.0,0,0,100,29.97,29.97,0,0,6,0.00
2013-10-6,0.0,0.0,0.0,0.0,0.0,0.0,0,0,100,29.97,29.85,6,0,6,0.00
2013-10-7,0.0,0.0,0.0,0.0,0.0,0.0,0,0,100,29.85,29.74,8,2,10,0.12
2013-10-8,0.0,0.0,0.0,0.0,0.0,0.0,0,0,100,29.85,29.74,3,0,4,0.43
2013-10-9,0.0,0.0,0.0,0.0,0.0,0.0,0,0,100,29.97,29.85,12,4,12,0.71
2013-10-10,0.0,0.0,0.0,0.0,0.0,0.0,0,0,100,29.97,29.94,9,2,9,0.71
2013-10-11,0.0,0.0,0.0,0.0,0.0,0.0,0,0,100,29.97,29.94,6,2,8,0.71
2013-10-12,0.0,0.0,0.0,0.0,0.0,0.0,0,0,100,29.97,29.94,13,5,13,0.71
2013-10-13,87.6,74.3,0.0,67.8,57.4,0.0,52,45,52,30.03,29.94,10,3,10,0.71
2013-10-14,88.0,78.1,64.8,74.5,67.7,63.5,100,74,52,30.00,29.88,13,3,13,0.71
2013-10-15,79.5,69.0,66.6,72.2,68.7,66.6,100,99,69,29.97,29.88,11,1,11,0.00
2013-10-16,87.6,74.5,71.4,74.8,70.7,57.4,100,92,39,29.94,29.85,6,0,8,0.00
2013-10-17,90.7,84.0,73.0,76.4,66.9,59.1,100,62,36,29.94,29.85,6,0,6,0.00
2013-10-18,91.8,81.2,70.7,72.0,65.5,59.1,100,67,36,29.94,29.85,6,1,6,0.00
2013-10-19,91.6,81.5,74.1,78.0,70.5,59.8,100,77,36,29.91,29.85,5,0,5,0.00
2013-10-21,90.5,80.8,73.2,79.0,74.2,57.7,100,84,36,29.97,29.85,7,0,9,0.00
2013-10-22,90.7,85.7,78.6,81.5,75.4,67.3,100,74,48,29.83,29.80,10,3,11,0.04
2013-10-23,78.6,71.8,71.4,78.6,71.8,71.4,100,100,100,29.88,29.80,12,5,13,0.28
2013-10-24,71.6,62.2,61.9,71.6,54.8,54.2,100,77,76,30.12,29.83,12,5,13,0.28
2013-10-25,81.9,63.9,57.2,65.1,59.3,57.2,100,88,56,30.15,30.06,10,2,10,0.28
2013-10-26,79.7,68.7,59.2,66.1,63.8,57.5,100,86,48,30.18,30.09,11,4,11,0.28
2013-10-27,80.2,79.5,78.4,65.1,64.4,63.4,60,60,60,30.09,30.03,11,4,11,0.00
2013-10-29,85.5,71.3,66.2,74.5,68.2,64.7,100,92,52,30.18,30.03,11,5,12,0.00
2013-10-30,86.0,70.5,66.4,66.7,66.2,64.7,100,89,52,30.15,30.09,11,2,11,0.00
2013-10-31,86.0,77.6,66.2,75.8,67.4,63.6,100,74,52,30.09,29.94,9,2,9,0.00